createdAt,value
2022-10-23T00:00:04.348Z,96228.66
2022-10-23T00:01:29.633Z,96225.44
2022-10-23T00:02:32.923Z,96222.97
2022-10-23T00:03:42.301Z,96222.19
2022-10-23T00:04:45.080Z,96222.25
2022-10-23T00:05:50.806Z,96216.31
2022-10-23T00:06:53.975Z,96222.38
2022-10-23T00:08:02.004Z,96214.75
2022-10-23T00:09:08.193Z,96216.56
2022-10-23T00:10:14.210Z,96213.97
2022-10-23T00:11:19.544Z,96219.22
2022-10-23T00:12:25.371Z,96214.06
2022-10-23T00:13:28.401Z,96214.09
2022-10-23T00:14:34.111Z,96219.34
2022-10-23T00:15:38.184Z,96216.91
2022-10-23T00:16:47.180Z,96214.31
2022-10-23T00:17:50.419Z,96215.19
2022-10-23T00:18:56.000Z,96216.03
2022-10-23T00:19:59.451Z,96219.53
2022-10-23T00:21:05.271Z,96212.63
2022-10-23T00:22:09.114Z,96212.56
2022-10-23T00:23:14.911Z,96208.19
2022-10-23T00:24:20.937Z,96212.44
2022-10-23T00:25:24.038Z,96198.59
2022-10-23T00:26:29.468Z,96202.88
2022-10-23T00:27:32.338Z,96199.38
2022-10-23T00:28:40.787Z,96194.34
2022-10-23T00:29:45.140Z,96177.97
2022-10-23T00:30:51.063Z,96178.75
2022-10-23T00:31:59.250Z,96183.84
2022-10-23T00:33:02.128Z,96190.00
2022-10-23T00:34:09.167Z,96185.88
2022-10-23T00:35:12.284Z,96181.69
2022-10-23T00:36:20.226Z,96181.69
2022-10-23T00:37:23.235Z,96182.63
2022-10-23T00:38:29.129Z,96173.31
2022-10-23T00:39:31.974Z,96180.25
2022-10-23T00:40:37.948Z,96178.44
2022-10-23T00:41:41.068Z,96180.25
2022-10-23T00:42:47.025Z,96175.19
2022-10-23T00:44:01.368Z,96181.28
2022-10-23T00:45:23.381Z,96180.50
2022-10-23T00:46:25.717Z,96182.31
2022-10-23T00:47:34.202Z,96169.38
2022-10-23T00:48:37.530Z,96182.44
2022-10-23T00:49:44.104Z,96178.06
2022-10-23T00:50:48.581Z,96179.00
2022-10-23T00:51:57.068Z,96174.69
2022-10-23T00:53:03.778Z,96173.91
2022-10-23T00:54:23.637Z,96179.06
2022-10-23T00:55:31.790Z,96172.22
2022-10-23T00:56:38.891Z,96178.22
2022-10-23T00:57:46.600Z,96175.59
